createdAt,value
2023-04-07T00:01:40.602Z,100557.00
2023-04-07T00:04:07.317Z,100561.31
2023-04-07T00:06:33.950Z,100560.44
2023-04-07T00:09:00.909Z,100553.53
2023-04-07T00:11:27.613Z,100549.16
2023-04-07T00:13:54.243Z,100557.84
2023-04-07T00:16:20.967Z,100553.53
2023-04-07T00:18:47.496Z,100543.97
2023-04-07T00:21:14.031Z,100552.63
2023-04-07T00:23:40.472Z,100550.91
2023-04-07T00:26:06.925Z,100548.28
2023-04-07T00:28:33.378Z,100540.47
2023-04-07T00:30:59.813Z,100545.66
2023-04-07T00:33:26.538Z,100550.88
2023-04-07T00:35:54.441Z,100550.88
2023-04-07T00:38:21.219Z,100548.28
2023-04-07T00:40:47.666Z,100541.31
2023-04-07T00:43:14.103Z,100544.81
2023-04-07T00:45:40.816Z,100544.78
2023-04-07T00:48:07.394Z,100543.03
2023-04-07T00:50:33.885Z,100544.78
2023-04-07T00:53:02.179Z,100535.28
2023-04-07T00:55:28.978Z,100540.47
2023-04-07T00:57:55.635Z,100537.84
2023-04-07T01:00:22.107Z,100535.25
2023-04-07T01:03:02.106Z,100541.31
2023-04-07T01:05:56.326Z,100531.75
2023-04-07T01:08:31.802Z,100530.88
2023-04-07T01:11:11.855Z,100534.31
2023-04-07T01:13:52.396Z,100524.78
2023-04-07T01:16:31.401Z,100528.25
2023-04-07T01:19:21.604Z,100529.13
2023-04-07T01:21:52.910Z,100519.56
2023-04-07T01:24:19.330Z,100526.53
2023-04-07T01:26:47.689Z,100522.19
2023-04-07T01:29:35.510Z,100519.56
2023-04-07T01:32:04.267Z,100524.75
2023-04-07T01:34:32.757Z,100521.31
2023-04-07T01:37:02.399Z,100522.19
2023-04-07T01:39:30.079Z,100526.53
2023-04-07T01:41:58.009Z,100518.69
2023-04-07T01:44:26.161Z,100519.56
2023-04-07T01:46:54.096Z,100516.06
2023-04-07T01:49:21.046Z,100516.06
2023-04-07T01:51:50.386Z,100516.91
2023-04-07T01:54:18.139Z,100512.56
2023-04-07T01:56:45.243Z,100510.84
2023-04-07T01:59:11.851Z,100516.91
2023-04-07T02:01:38.619Z,100513.47
2023-04-07T02:04:12.511Z,100518.69
2023-04-07T02:06:44.757Z,100510.84
2023-04-07T02:09:15.413Z,100507.38
2023-04-07T02:11:43.823Z,100509.09
2023-04-07T02:14:11.395Z,100518.66
2023-04-07T02:16:39.500Z,100520.38
2023-04-07T02:19:06.190Z,100515.16
2023-04-07T02:21:35.795Z,100524.72
2023-04-07T02:24:06.368Z,100515.19
2023-04-07T02:26:35.505Z,100511.72
2023-04-07T02:29:03.445Z,100513.47
2023-04-07T02:31:30.452Z,100513.44
2023-04-07T02:33:57.000Z,100512.56
2023-04-07T02:36:23.671Z,100503.88
2023-04-07T02:38:50.390Z,100510.81
2023-04-07T02:41:16.917Z,100520.34
2023-04-07T02:43:43.367Z,100509.03
2023-04-07T02:46:09.861Z,100516.00
2023-04-07T02:48:36.333Z,100516.00
2023-04-07T02:51:02.784Z,100517.72
2023-04-07T02:53:29.242Z,100516.78
2023-04-07T02:55:55.688Z,100521.13
2023-04-07T02:58:22.334Z,100521.06
2023-04-07T03:00:50.692Z,100516.66
2023-04-07T03:03:17.444Z,100507.00
2023-04-07T03:05:44.139Z,100519.19
2023-04-07T03:08:12.816Z,100512.22
2023-04-07T03:10:39.950Z,100513.03
2023-04-07T03:13:08.320Z,100512.13
2023-04-07T03:15:34.871Z,100512.13
2023-04-07T03:18:01.389Z,100516.47
2023-04-07T03:20:27.878Z,100514.75
2023-04-07T03:22:54.291Z,100513.00
2023-04-07T03:25:21.537Z,100515.63
2023-04-07T03:27:47.921Z,100522.56
2023-04-07T03:30:14.428Z,100515.63
2023-04-07T03:32:41.020Z,100513.88
2023-04-07T03:35:07.980Z,100514.72
2023-04-07T03:37:34.417Z,100519.94
2023-04-07T03:40:01.282Z,100514.75
2023-04-07T03:42:27.779Z,100527.78
2023-04-07T03:44:54.283Z,100521.69
2023-04-07T03:47:20.773Z,100515.59
2023-04-07T03:49:47.207Z,100520.81
2023-04-07T03:52:13.693Z,100521.72
2023-04-07T03:54:40.399Z,100520.88
2023-04-07T03:57:06.954Z,100521.75
2023-04-07T03:59:33.487Z,100527.84
2023-04-07T04:02:00.147Z,100523.53
2023-04-07T04:04:26.740Z,100523.53
2023-04-07T04:06:53.340Z,100530.47
2023-04-07T04:09:20.787Z,100531.34
2023-04-07T04:11:47.327Z,100532.25
2023-04-07T04:14:13.804Z,100540.06
2023-04-07T04:16:40.227Z,100539.19
2023-04-07T04:19:06.705Z,100545.28
2023-04-07T04:21:33.167Z,100547.91
2023-04-07T04:23:59.618Z,100544.44
2023-04-07T04:26:26.283Z,100547.03
2023-04-07T04:28:55.401Z,100553.97
2023-04-07T04:31:21.897Z,100553.13
2023-04-07T04:33:48.366Z,100548.78
2023-04-07T04:36:14.845Z,100556.59
2023-04-07T04:38:41.335Z,100558.31
2023-04-07T04:41:07.809Z,100561.81
2023-04-07T04:43:34.301Z,100561.84
2023-04-07T04:46:00.849Z,100565.34
2023-04-07T04:48:27.345Z,100563.59
2023-04-07T04:50:53.928Z,100559.25
2023-04-07T04:53:20.363Z,100569.69
2023-04-07T04:55:51.847Z,100561.88
2023-04-07T04:58:19.324Z,100567.94
2023-04-07T05:00:45.861Z,100572.28
2023-04-07T05:03:12.765Z,100572.28
2023-04-07T05:05:39.523Z,100576.66
2023-04-07T05:08:06.133Z,100578.41
2023-04-07T05:10:32.632Z,100569.75
2023-04-07T05:12:59.077Z,100576.69
2023-04-07T05:15:25.766Z,100575.84
2023-04-07T05:17:52.296Z,100580.19
2023-04-07T05:20:18.874Z,100583.66
2023-04-07T05:22:45.403Z,100584.56
2023-04-07T05:25:11.869Z,100583.69
2023-04-07T05:27:38.308Z,100590.63
2023-04-07T05:30:05.449Z,100585.44
2023-04-07T05:32:31.925Z,100584.59
2023-04-07T05:34:58.445Z,100585.44
2023-04-07T05:37:24.951Z,100592.41
2023-04-07T05:39:51.605Z,100588.03
2023-04-07T05:42:18.268Z,100595.03
2023-04-07T05:44:45.676Z,100602.84
2023-04-07T05:47:12.126Z,100598.50
2023-04-07T05:49:45.759Z,100601.13
2023-04-07T05:52:13.124Z,100602.84
2023-04-07T05:54:42.514Z,100614.16
2023-04-07T05:57:09.238Z,100608.97
2023-04-07T05:59:36.700Z,100615.00
2023-04-07T06:02:03.920Z,100611.53
2023-04-07T06:04:30.465Z,100615.03
2023-04-07T06:06:56.932Z,100613.34
2023-04-07T06:09:23.627Z,100622.00
2023-04-07T06:11:50.612Z,100622.00
2023-04-07T06:14:17.630Z,100626.38
2023-04-07T06:16:44.209Z,100633.34
2023-04-07T06:19:10.969Z,100633.34
2023-04-07T06:21:37.474Z,100635.06
2023-04-07T06:24:03.917Z,100634.19
2023-04-07T06:26:30.709Z,100633.31
2023-04-07T06:28:58.114Z,100633.34
2023-04-07T06:31:25.470Z,100640.28
2023-04-07T06:33:51.942Z,100641.16
2023-04-07T06:36:18.583Z,100637.66
2023-04-07T06:38:45.035Z,100642.84
2023-04-07T06:41:16.810Z,100635.03
2023-04-07T06:43:49.643Z,100642.84
2023-04-07T06:46:16.387Z,100642.84
2023-04-07T06:48:43.057Z,100651.50
2023-04-07T06:51:09.601Z,100660.19
2023-04-07T06:53:36.464Z,100654.13
2023-04-07T06:56:08.082Z,100656.75
2023-04-07T06:58:35.862Z,100654.97
2023-04-07T07:01:03.942Z,100662.84
2023-04-07T07:03:31.660Z,100661.94
2023-04-07T07:06:01.816Z,100666.28
2023-04-07T07:08:29.161Z,100669.75
2023-04-07T07:10:56.138Z,100668.00
2023-04-07T07:13:24.462Z,100675.81
2023-04-07T07:15:51.787Z,100670.63
2023-04-07T07:18:19.345Z,100671.44
2023-04-07T07:20:46.533Z,100676.63
2023-04-07T07:23:13.055Z,100678.41
2023-04-07T07:25:39.573Z,100680.13
2023-04-07T07:28:06.222Z,100681.88
2023-04-07T07:30:32.821Z,100685.34
2023-04-07T07:32:59.289Z,100687.09
2023-04-07T07:35:26.033Z,100687.91
2023-04-07T07:37:52.607Z,100690.50
2023-04-07T07:40:19.139Z,100693.97
2023-04-07T07:42:46.859Z,100690.47
2023-04-07T07:45:13.946Z,100701.81
2023-04-07T07:47:41.092Z,100701.78
2023-04-07T07:50:08.107Z,100709.63
2023-04-07T07:52:34.651Z,100703.53
2023-04-07T07:55:01.125Z,100710.47
2023-04-07T07:57:27.565Z,100710.44
2023-04-07T07:59:54.130Z,100718.28
2023-04-07T08:02:20.711Z,100713.94
2023-04-07T08:04:47.313Z,100713.03
2023-04-07T08:07:13.929Z,100713.84
2023-04-07T08:09:40.406Z,100718.16
2023-04-07T08:12:06.914Z,100716.47
2023-04-07T08:14:33.444Z,100723.44
2023-04-07T08:16:59.902Z,100725.22
2023-04-07T08:19:26.684Z,100725.19
2023-04-07T08:21:53.280Z,100729.50
2023-04-07T08:24:19.721Z,100726.94
2023-04-07T08:26:46.142Z,100728.66
2023-04-07T08:29:12.597Z,100735.56
2023-04-07T08:31:39.309Z,100738.19
2023-04-07T08:34:05.920Z,100734.72
2023-04-07T08:36:32.627Z,100749.47
2023-04-07T08:39:01.195Z,100741.63
2023-04-07T08:41:36.920Z,100747.72
2023-04-07T08:44:03.877Z,100751.19
2023-04-07T08:46:31.668Z,100751.19
2023-04-07T08:48:58.329Z,100752.91
2023-04-07T08:51:30.138Z,100754.66
2023-04-07T08:54:09.010Z,100756.38
2023-04-07T08:56:38.396Z,100751.16
2023-04-07T08:59:06.997Z,100752.03
2023-04-07T09:01:35.749Z,100764.19
2023-04-07T09:04:04.335Z,100764.19
2023-04-07T09:06:32.077Z,100758.97
2023-04-07T09:08:59.437Z,100766.72
2023-04-07T09:11:29.976Z,100764.19
2023-04-07T09:13:57.117Z,100764.13
2023-04-07T09:16:26.439Z,100777.19
2023-04-07T09:18:53.464Z,100771.09
2023-04-07T09:21:19.946Z,100776.25
2023-04-07T09:23:47.967Z,100774.53
2023-04-07T09:26:22.048Z,100775.41
2023-04-07T09:29:00.602Z,100774.53
2023-04-07T09:31:48.206Z,100777.16
2023-04-07T09:34:28.044Z,100785.84
2023-04-07T09:36:55.158Z,100774.56
2023-04-07T09:39:21.972Z,100773.66
2023-04-07T09:41:48.872Z,100783.28
2023-04-07T09:44:15.909Z,100780.69
2023-04-07T09:46:53.812Z,100780.69
2023-04-07T09:49:21.509Z,100785.91
2023-04-07T09:52:05.389Z,100788.50
2023-04-07T09:54:42.633Z,100787.66
2023-04-07T09:57:11.092Z,100792.00
2023-04-07T09:59:45.311Z,100792.81
2023-04-07T10:02:15.798Z,100798.91
2023-04-07T10:04:42.540Z,100791.94
2023-04-07T10:07:08.945Z,100798.88
2023-04-07T10:09:35.561Z,100795.38
2023-04-07T10:12:03.139Z,100804.09
2023-04-07T10:14:32.951Z,100796.25
2023-04-07T10:17:01.596Z,100800.66
2023-04-07T10:19:32.569Z,100798.03
2023-04-07T10:22:01.845Z,100804.97
2023-04-07T10:25:00.419Z,100798.84
2023-04-07T10:27:35.488Z,100804.03
2023-04-07T10:30:05.977Z,100810.09
2023-04-07T10:32:32.614Z,100814.47
2023-04-07T10:35:00.968Z,100809.19
2023-04-07T10:37:27.915Z,100814.44
2023-04-07T10:40:19.414Z,100809.22
2023-04-07T10:42:47.555Z,100811.81
2023-04-07T10:45:14.529Z,100813.47
2023-04-07T10:47:59.711Z,100807.41
2023-04-07T10:50:26.552Z,100815.22
2023-04-07T10:53:16.280Z,100816.06
2023-04-07T10:55:47.200Z,100818.69
2023-04-07T10:58:31.108Z,100826.53
2023-04-07T11:01:00.610Z,100823.06
2023-04-07T11:03:29.222Z,100823.06
2023-04-07T11:06:05.181Z,100821.28
2023-04-07T11:08:36.476Z,100828.28
2023-04-07T11:11:08.897Z,100830.94
2023-04-07T11:13:49.357Z,100838.75
2023-04-07T11:16:18.408Z,100835.28
2023-04-07T11:18:46.385Z,100837.88
2023-04-07T11:21:17.695Z,100837.03
2023-04-07T11:23:46.691Z,100837.81
2023-04-07T11:26:14.973Z,100839.53
2023-04-07T11:28:50.040Z,100842.13
2023-04-07T11:31:31.280Z,100846.47
2023-04-07T11:34:03.118Z,100845.56
2023-04-07T11:36:32.347Z,100845.53
2023-04-07T11:39:00.147Z,100850.72
2023-04-07T11:41:28.511Z,100859.41
2023-04-07T11:44:05.656Z,100854.16
2023-04-07T11:46:32.305Z,100862.84
2023-04-07T11:49:17.286Z,100860.22
2023-04-07T11:51:44.556Z,100864.56
2023-04-07T11:54:11.382Z,100862.75
2023-04-07T11:56:48.440Z,100874.09
2023-04-07T11:59:23.306Z,100881.03
2023-04-07T12:01:51.382Z,100889.78
2023-04-07T12:04:19.603Z,100883.66
2023-04-07T12:06:48.225Z,100886.22
2023-04-07T12:09:32.144Z,100888.81
2023-04-07T12:11:59.227Z,100891.34
2023-04-07T12:14:27.702Z,100895.50
2023-04-07T12:16:58.870Z,100898.97
2023-04-07T12:19:29.454Z,100904.13
2023-04-07T12:21:56.891Z,100907.59
2023-04-07T12:24:24.249Z,100912.81
2023-04-07T12:26:50.797Z,100918.13
2023-04-07T12:29:20.246Z,100918.09
2023-04-07T12:31:49.402Z,100924.09
2023-04-07T12:34:17.190Z,100920.66
2023-04-07T12:36:44.752Z,100920.59
2023-04-07T12:39:11.592Z,100917.84
2023-04-07T12:41:38.764Z,100943.16
2023-04-07T12:44:05.966Z,100933.63
2023-04-07T12:46:32.594Z,100930.16
2023-04-07T12:48:59.262Z,100939.69
2023-04-07T12:51:26.363Z,100935.31
2023-04-07T12:53:54.291Z,100946.72
2023-04-07T12:56:22.435Z,100942.41
2023-04-07T12:58:48.973Z,100938.00
2023-04-07T13:01:16.761Z,100943.22
2023-04-07T13:03:43.740Z,100938.00
2023-04-07T13:06:10.873Z,100944.03
2023-04-07T13:08:37.809Z,100941.47
2023-04-07T13:11:04.720Z,100941.44
2023-04-07T13:13:31.647Z,100944.03
2023-04-07T13:15:58.192Z,100940.63
2023-04-07T13:18:24.933Z,100943.28
2023-04-07T13:21:06.255Z,100943.28
2023-04-07T13:23:43.250Z,100945.81
2023-04-07T13:26:10.040Z,100941.50
2023-04-07T13:28:36.526Z,100944.03
2023-04-07T13:31:03.011Z,100951.06
2023-04-07T13:33:29.524Z,100947.56
2023-04-07T13:35:55.986Z,100950.22
2023-04-07T13:38:22.494Z,100945.84
2023-04-07T13:40:49.667Z,100956.31
2023-04-07T13:43:18.445Z,100954.56
2023-04-07T13:45:45.030Z,100953.69
2023-04-07T13:48:11.685Z,100961.50
2023-04-07T13:50:38.531Z,100954.53
2023-04-07T13:53:04.989Z,100956.19
2023-04-07T13:55:31.470Z,100959.59
2023-04-07T13:57:57.896Z,100956.94
2023-04-07T14:00:24.417Z,100958.75
2023-04-07T14:02:50.971Z,100964.81
2023-04-07T14:05:17.581Z,100954.28
2023-04-07T14:07:44.018Z,100965.59
2023-04-07T14:10:10.953Z,100958.72
2023-04-07T14:12:37.450Z,100966.56
2023-04-07T14:15:04.441Z,100962.13
2023-04-07T14:17:30.932Z,100969.88
2023-04-07T14:19:57.386Z,100962.88
2023-04-07T14:22:23.857Z,100958.44
2023-04-07T14:24:50.300Z,100960.19
2023-04-07T14:27:20.858Z,100960.31
2023-04-07T14:29:48.716Z,100963.88
2023-04-07T14:32:16.259Z,100964.69
2023-04-07T14:34:42.819Z,100964.66
2023-04-07T14:37:09.300Z,100968.19
2023-04-07T14:39:35.828Z,100961.19
2023-04-07T14:42:02.309Z,100960.38
2023-04-07T14:44:29.495Z,100964.72
2023-04-07T14:46:56.215Z,100962.13
2023-04-07T14:49:22.832Z,100966.38
2023-04-07T14:51:49.288Z,100967.34
2023-04-07T14:54:15.717Z,100969.88
2023-04-07T14:56:42.158Z,100961.06
2023-04-07T14:59:08.718Z,100970.63
2023-04-07T15:01:35.445Z,100968.03
2023-04-07T15:04:02.039Z,100968.88
2023-04-07T15:06:28.573Z,100971.44
2023-04-07T15:08:55.198Z,100972.31
2023-04-07T15:11:21.846Z,100977.56
2023-04-07T15:13:49.057Z,100986.38
2023-04-07T15:16:16.140Z,100989.03
2023-04-07T15:18:45.252Z,100993.47
2023-04-07T15:21:13.338Z,101008.31
2023-04-07T15:23:41.602Z,100998.78
2023-04-07T15:26:08.851Z,100995.34
2023-04-07T15:28:35.642Z,100998.81
2023-04-07T15:31:02.210Z,100997.06
2023-04-07T15:33:28.796Z,101004.03
2023-04-07T15:35:56.392Z,101004.84
2023-04-07T15:38:22.932Z,101010.13
2023-04-07T15:40:49.501Z,101005.84
2023-04-07T15:43:16.246Z,101007.53
2023-04-07T15:45:43.989Z,101011.97
2023-04-07T15:48:11.509Z,101011.91
2023-04-07T15:50:38.249Z,101016.25
2023-04-07T15:53:05.094Z,101015.38
2023-04-07T15:55:35.646Z,101026.75
2023-04-07T15:58:03.160Z,101019.81
2023-04-07T16:00:32.920Z,101024.16
2023-04-07T16:03:01.939Z,101022.41
2023-04-07T16:05:29.063Z,101027.66
2023-04-07T16:07:55.750Z,101027.69
2023-04-07T16:10:22.391Z,101022.47
2023-04-07T16:12:48.849Z,101027.72
2023-04-07T16:15:22.700Z,101026.88
2023-04-07T16:17:59.747Z,101026.03
2023-04-07T16:20:26.491Z,101025.19
2023-04-07T16:22:52.911Z,101023.47
2023-04-07T16:25:19.396Z,101021.72
2023-04-07T16:27:47.157Z,101022.56
2023-04-07T16:30:15.071Z,101022.63
2023-04-07T16:32:43.703Z,101024.31
2023-04-07T16:35:11.685Z,101028.66
2023-04-07T16:37:39.096Z,101029.56
2023-04-07T16:40:06.641Z,101027.84
2023-04-07T16:42:34.106Z,101027.84
2023-04-07T16:45:02.293Z,101036.56
2023-04-07T16:47:29.969Z,101034.84
2023-04-07T16:49:57.349Z,101048.72
2023-04-07T16:52:25.002Z,101041.78
2023-04-07T16:54:51.803Z,101044.41
2023-04-07T16:57:18.374Z,101041.78
2023-04-07T16:59:44.893Z,101054.84
2023-04-07T17:02:13.932Z,101049.63
2023-04-07T17:04:41.177Z,101050.47
2023-04-07T17:07:08.289Z,101059.28
2023-04-07T17:09:35.432Z,101060.16
2023-04-07T17:12:03.373Z,101054.91
2023-04-07T17:14:30.478Z,101062.75
2023-04-07T17:16:57.630Z,101066.25
2023-04-07T17:19:24.705Z,101067.16
2023-04-07T17:21:51.242Z,101063.66
2023-04-07T17:24:17.816Z,101068.84
2023-04-07T17:26:48.671Z,101081.94
2023-04-07T17:29:16.452Z,101077.59
2023-04-07T17:31:43.532Z,101087.16
2023-04-07T17:34:10.803Z,101096.75
2023-04-07T17:36:37.787Z,101097.63
2023-04-07T17:39:05.066Z,101089.81
2023-04-07T17:41:35.339Z,101093.28
2023-04-07T17:44:02.263Z,101101.09
2023-04-07T17:46:29.468Z,101101.13
2023-04-07T17:48:59.148Z,101109.84
2023-04-07T17:51:26.598Z,101108.97
2023-04-07T17:53:54.134Z,101122.91
2023-04-07T17:56:21.254Z,101115.94
2023-04-07T17:58:47.857Z,101126.41
2023-04-07T18:01:14.931Z,101120.31
2023-04-07T18:03:41.526Z,101120.31
2023-04-07T18:06:11.150Z,101120.31
2023-04-07T18:08:37.600Z,101128.13
2023-04-07T18:11:05.959Z,101132.47
2023-04-07T18:13:33.822Z,101134.22
2023-04-07T18:16:00.675Z,101133.38
2023-04-07T18:18:27.290Z,101138.56
2023-04-07T18:20:53.799Z,101127.25
2023-04-07T18:23:20.236Z,101135.09
2023-04-07T18:25:47.153Z,101140.31
2023-04-07T18:28:13.688Z,101142.06
2023-04-07T18:30:40.204Z,101142.09
2023-04-07T18:33:06.719Z,101144.69
2023-04-07T18:35:33.381Z,101152.50
2023-04-07T18:38:00.045Z,101149.91
2023-04-07T18:40:26.677Z,101148.16
2023-04-07T18:42:53.447Z,101161.22
2023-04-07T18:45:20.097Z,101153.41
2023-04-07T18:47:47.711Z,101162.97
2023-04-07T18:50:14.402Z,101167.31
2023-04-07T18:52:41.023Z,101167.31
2023-04-07T18:55:08.704Z,101174.25
2023-04-07T18:57:35.138Z,101180.34
2023-04-07T19:00:01.865Z,101177.75
2023-04-07T19:02:28.436Z,101184.72
2023-04-07T19:04:55.044Z,101183.00
2023-04-07T19:07:21.556Z,101184.72
2023-04-07T19:09:51.276Z,101190.84
2023-04-07T19:12:17.840Z,101195.19
2023-04-07T19:14:44.312Z,101195.19
2023-04-07T19:17:11.780Z,101190.84
2023-04-07T19:19:38.233Z,101199.53
2023-04-07T19:22:04.723Z,101197.78
2023-04-07T19:24:31.195Z,101199.53
2023-04-07T19:26:57.772Z,101196.91
2023-04-07T19:29:24.227Z,101197.78
2023-04-07T19:31:52.852Z,101198.69
2023-04-07T19:34:19.369Z,101204.75
2023-04-07T19:36:45.862Z,101201.28
2023-04-07T19:39:12.391Z,101207.41
2023-04-07T19:41:39.026Z,101206.53
2023-04-07T19:44:05.497Z,101213.47
2023-04-07T19:46:33.326Z,101209.13
2023-04-07T19:48:59.837Z,101213.50
2023-04-07T19:51:27.577Z,101213.47
2023-04-07T19:53:54.118Z,101208.25
2023-04-07T19:56:20.629Z,101223.06
2023-04-07T19:58:47.353Z,101218.75
2023-04-07T20:01:18.137Z,101215.25
2023-04-07T20:03:45.525Z,101219.59
2023-04-07T20:06:14.590Z,101223.97
2023-04-07T20:08:41.905Z,101223.06
2023-04-07T20:11:11.515Z,101227.41
2023-04-07T20:13:41.233Z,101226.56
2023-04-07T20:16:08.548Z,101225.69
2023-04-07T20:18:35.074Z,101223.97
2023-04-07T20:21:02.859Z,101230.06
2023-04-07T20:23:29.348Z,101229.19
2023-04-07T20:25:55.866Z,101229.19
2023-04-07T20:28:22.660Z,101230.94
2023-04-07T20:30:49.169Z,101235.28
2023-04-07T20:33:15.843Z,101233.53
2023-04-07T20:35:42.458Z,101233.56
2023-04-07T20:38:08.899Z,101237.03
2023-04-07T20:40:36.921Z,101238.78
2023-04-07T20:43:04.751Z,101238.78
2023-04-07T20:45:34.642Z,101235.31
2023-04-07T20:48:01.488Z,101238.78
2023-04-07T20:50:28.585Z,101243.09
2023-04-07T20:52:55.101Z,101242.25
2023-04-07T20:55:21.718Z,101245.69
2023-04-07T20:57:48.508Z,101244.84
2023-04-07T21:00:16.391Z,101246.59
2023-04-07T21:02:44.652Z,101248.34
2023-04-07T21:05:11.276Z,101250.06
2023-04-07T21:07:37.768Z,101251.81
2023-04-07T21:10:05.470Z,101249.19
2023-04-07T21:12:32.015Z,101249.22
2023-04-07T21:14:58.537Z,101244.00
2023-04-07T21:17:24.980Z,101258.75
2023-04-07T21:19:51.475Z,101251.81
2023-04-07T21:22:17.919Z,101253.56
2023-04-07T21:24:44.388Z,101253.53
2023-04-07T21:27:11.723Z,101254.44
2023-04-07T21:29:40.197Z,101257.03
2023-04-07T21:32:07.353Z,101257.03
2023-04-07T21:34:33.906Z,101255.28
2023-04-07T21:37:00.423Z,101249.22
2023-04-07T21:39:26.915Z,101253.53
2023-04-07T21:41:53.327Z,101258.75
2023-04-07T21:44:21.388Z,101260.53
2023-04-07T21:46:47.916Z,101263.97
2023-04-07T21:49:15.470Z,101263.09
2023-04-07T21:51:42.134Z,101258.78
2023-04-07T21:54:08.521Z,101259.63
2023-04-07T21:56:35.031Z,101260.50
2023-04-07T21:59:03.189Z,101258.78
2023-04-07T22:01:29.924Z,101256.16
2023-04-07T22:03:56.521Z,101256.16
2023-04-07T22:06:23.210Z,101254.41
2023-04-07T22:11:21.468Z,101242.25
2023-04-07T22:13:47.895Z,101255.28
2023-04-07T22:16:14.391Z,101250.94
2023-04-07T22:18:41.107Z,101257.91
2023-04-07T22:21:07.575Z,101257.91
2023-04-07T22:23:34.123Z,101259.66
2023-04-07T22:26:00.658Z,101259.66
2023-04-07T22:28:27.052Z,101256.19
2023-04-07T22:30:53.502Z,101257.88
2023-04-07T22:33:19.955Z,101263.97
2023-04-07T22:35:46.459Z,101265.69
2023-04-07T22:38:13.584Z,101268.28
2023-04-07T22:40:40.145Z,101264.88
2023-04-07T22:43:06.580Z,101266.63
2023-04-07T22:45:33.179Z,101270.97
2023-04-07T22:47:59.644Z,101270.97
2023-04-07T22:50:26.440Z,101277.00
2023-04-07T22:52:52.928Z,101275.28
2023-04-07T22:55:19.977Z,101265.69
2023-04-07T22:57:47.411Z,101274.41
2023-04-07T23:00:14.381Z,101277.88
2023-04-07T23:02:41.136Z,101274.38
2023-04-07T23:05:10.370Z,101277.03
2023-04-07T23:07:37.738Z,101281.34
2023-04-07T23:10:04.863Z,101283.97
2023-04-07T23:12:31.699Z,101284.81
2023-04-07T23:14:58.162Z,101281.34
2023-04-07T23:17:24.766Z,101283.97
2023-04-07T23:19:51.215Z,101285.69
2023-04-07T23:22:17.777Z,101285.72
2023-04-07T23:24:44.223Z,101284.84
2023-04-07T23:27:10.671Z,101287.44
2023-04-07T23:29:37.172Z,101290.94
2023-04-07T23:32:03.918Z,101291.78
2023-04-07T23:34:30.675Z,101291.78
2023-04-07T23:36:57.219Z,101289.19
2023-04-07T23:39:23.658Z,101290.91
2023-04-07T23:41:50.093Z,101292.66
2023-04-07T23:44:17.423Z,101299.63
2023-04-07T23:46:43.833Z,101300.47
2023-04-07T23:49:10.297Z,101300.47
2023-04-07T23:51:36.767Z,101297.00
2023-04-07T23:54:03.481Z,101305.69
2023-04-07T23:56:30.037Z,101307.44
2023-04-07T23:58:56.486Z,101308.31
